createdAt,value
2018-03-14T00:00:47.428Z,10.23
2018-03-14T00:03:15.142Z,10.33
2018-03-14T00:05:42.837Z,10.17
2018-03-14T00:08:10.833Z,9.40
2018-03-14T00:10:38.533Z,10.17
2018-03-14T00:13:06.251Z,10.73
2018-03-14T00:15:33.947Z,12.30
2018-03-14T00:18:01.802Z,13.90
2018-03-14T00:20:29.755Z,18.83
2018-03-14T00:22:58.319Z,21.43
2018-03-14T00:25:26.628Z,18.33
2018-03-14T00:27:54.482Z,17.77
2018-03-14T00:30:22.218Z,18.30
2018-03-14T00:32:50.607Z,16.53
2018-03-14T00:35:18.493Z,15.87
2018-03-14T00:37:46.426Z,19.93
2018-03-14T00:40:14.308Z,18.03
2018-03-14T00:42:42.017Z,15.37
2018-03-14T00:45:09.964Z,17.10
2018-03-14T00:47:37.691Z,16.73
2018-03-14T00:50:05.609Z,16.73
2018-03-14T00:52:33.325Z,14.93
2018-03-14T00:55:01.026Z,15.27
2018-03-14T00:57:28.725Z,12.13
2018-03-14T00:59:56.436Z,13.03
2018-03-14T01:02:24.413Z,10.33
2018-03-14T01:04:52.123Z,12.57
2018-03-14T01:07:19.931Z,11.07
2018-03-14T01:09:47.629Z,9.93
2018-03-14T01:12:15.571Z,10.60
2018-03-14T01:14:43.279Z,11.63
2018-03-14T01:17:11.205Z,12.07
2018-03-14T01:19:38.929Z,10.47
2018-03-14T01:22:06.835Z,9.00
2018-03-14T01:24:35.412Z,10.87
2018-03-14T01:27:03.125Z,8.93
2018-03-14T01:29:30.810Z,7.47
2018-03-14T01:31:58.687Z,9.17
2018-03-14T01:34:26.549Z,7.67
2018-03-14T01:36:54.245Z,6.20
2018-03-14T01:39:22.212Z,14.40
2018-03-14T01:41:50.237Z,14.50
2018-03-14T01:44:17.941Z,15.87
2018-03-14T01:46:45.650Z,14.37
2018-03-14T01:49:13.342Z,13.07
2018-03-14T01:51:41.036Z,11.50
2018-03-14T01:54:09.614Z,12.03
2018-03-14T01:56:37.316Z,11.17
2018-03-14T01:59:05.759Z,10.50
2018-03-14T02:01:33.726Z,10.57
2018-03-14T02:04:01.478Z,13.17
2018-03-14T02:06:29.183Z,11.47
2018-03-14T02:08:57.620Z,10.00
2018-03-14T02:11:25.498Z,10.20
2018-03-14T02:13:53.199Z,10.53
2018-03-14T02:16:21.743Z,11.97
2018-03-14T02:18:50.097Z,12.07
2018-03-14T02:21:17.862Z,13.67
2018-03-14T02:23:45.559Z,12.80
2018-03-14T02:26:13.624Z,14.60
2018-03-14T02:28:41.418Z,13.73
2018-03-14T02:31:09.766Z,16.73
2018-03-14T02:33:37.738Z,12.93
2018-03-14T02:36:05.704Z,14.50
2018-03-14T02:38:33.403Z,12.23
2018-03-14T02:41:01.334Z,13.33
2018-03-14T02:43:29.405Z,11.17
2018-03-14T02:45:57.114Z,9.37
2018-03-14T02:48:25.443Z,9.07
2018-03-14T02:50:53.916Z,8.97
2018-03-14T02:53:21.897Z,8.93
2018-03-14T02:55:49.576Z,8.00
2018-03-14T02:58:17.984Z,7.73
2018-03-14T03:00:46.277Z,8.17
2018-03-14T03:03:13.962Z,8.23
2018-03-14T03:05:41.639Z,7.00
2018-03-14T03:08:09.312Z,6.37
2018-03-14T03:10:37.169Z,7.40
2018-03-14T03:13:04.850Z,6.17
2018-03-14T03:15:32.700Z,5.50
2018-03-14T03:18:00.373Z,6.97
2018-03-14T03:20:28.070Z,7.10
2018-03-14T03:22:55.795Z,6.00
2018-03-14T03:25:24.088Z,7.47
2018-03-14T03:27:51.822Z,5.77
2018-03-14T03:30:19.503Z,7.97
2018-03-14T03:32:47.234Z,6.63
2018-03-14T03:35:15.008Z,7.00
2018-03-14T03:37:42.689Z,5.63
2018-03-14T03:40:10.548Z,6.27
2018-03-14T03:42:38.489Z,4.73
2018-03-14T03:45:06.173Z,6.03
2018-03-14T03:47:33.855Z,10.20
2018-03-14T03:50:01.728Z,7.27
2018-03-14T03:52:29.604Z,10.97
2018-03-14T03:54:57.990Z,10.57
2018-03-14T03:57:26.291Z,10.40
2018-03-14T03:59:53.988Z,10.57
2018-03-14T04:02:21.966Z,8.30
2018-03-14T04:04:49.975Z,7.43
2018-03-14T04:07:17.901Z,7.97
2018-03-14T04:09:45.717Z,7.37
2018-03-14T04:12:13.397Z,8.63
2018-03-14T04:14:41.067Z,9.37
2018-03-14T04:17:08.972Z,9.27
2018-03-14T04:19:36.634Z,9.47
2018-03-14T04:22:04.339Z,10.10
2018-03-14T04:24:32.076Z,10.73
2018-03-14T04:26:59.760Z,11.30
2018-03-14T04:29:27.442Z,8.93
2018-03-14T04:31:55.851Z,9.77
2018-03-14T04:34:23.695Z,9.20
2018-03-14T04:36:51.361Z,9.00
2018-03-14T04:39:19.038Z,8.87
2018-03-14T04:41:47.428Z,9.73
2018-03-14T04:44:15.291Z,8.87
2018-03-14T04:46:43.018Z,8.23
2018-03-14T04:49:10.747Z,7.53
2018-03-14T04:51:38.421Z,7.63
2018-03-14T04:54:06.097Z,8.90
2018-03-14T04:56:34.007Z,9.47
2018-03-14T04:59:01.873Z,7.93
2018-03-14T05:01:29.541Z,7.77
2018-03-14T05:03:57.507Z,8.80
2018-03-14T05:06:25.448Z,7.47
2018-03-14T05:08:53.345Z,8.03
2018-03-14T05:11:21.581Z,8.13
2018-03-14T05:13:49.258Z,9.50
2018-03-14T05:16:17.022Z,9.67
2018-03-14T05:18:44.689Z,9.10
2018-03-14T05:21:12.364Z,10.33
2018-03-14T05:23:40.335Z,10.07
2018-03-14T05:26:08.054Z,8.67
2018-03-14T05:28:35.730Z,10.20
2018-03-14T05:31:03.631Z,9.10
2018-03-14T05:33:31.451Z,10.33
2018-03-14T05:35:59.362Z,11.23
2018-03-14T05:38:27.030Z,11.27
2018-03-14T05:40:54.698Z,11.87
2018-03-14T05:43:22.518Z,11.33
2018-03-14T05:45:50.386Z,10.00
2018-03-14T05:48:18.113Z,11.23
2018-03-14T05:50:46.049Z,8.57
2018-03-14T05:53:13.918Z,9.73
2018-03-14T05:55:41.582Z,13.27
2018-03-14T05:58:09.551Z,11.77
2018-03-14T06:00:37.255Z,12.20
2018-03-14T06:03:04.927Z,12.10
2018-03-14T06:05:32.598Z,10.83
2018-03-14T06:08:00.504Z,14.10
2018-03-14T06:10:28.240Z,13.50
2018-03-14T06:12:56.238Z,14.17
2018-03-14T06:15:24.017Z,13.77
2018-03-14T06:17:51.689Z,16.87
2018-03-14T06:20:19.633Z,17.13
2018-03-14T06:22:47.302Z,32.17
2018-03-14T06:25:14.980Z,27.27
2018-03-14T06:27:42.654Z,20.30
2018-03-14T06:30:11.165Z,25.03
2018-03-14T06:32:39.170Z,27.70
2018-03-14T06:35:06.849Z,21.93
2018-03-14T06:37:34.542Z,17.93
2018-03-14T06:40:02.559Z,19.97
2018-03-14T06:42:30.240Z,21.93
2018-03-14T06:44:58.170Z,17.17
2018-03-14T06:47:25.854Z,19.33
2018-03-14T06:49:53.603Z,17.23
2018-03-14T06:52:21.506Z,13.00
2018-03-14T06:54:49.235Z,12.67
2018-03-14T06:57:17.327Z,12.10
2018-03-14T06:59:57.546Z,11.80
2018-03-14T07:05:39.704Z,19.60
2018-03-14T07:08:06.136Z,16.33
2018-03-14T07:10:32.573Z,15.47
2018-03-14T07:12:58.962Z,15.57
2018-03-14T07:15:25.851Z,13.73
2018-03-14T07:17:52.068Z,14.20
2018-03-14T07:20:18.273Z,15.07
2018-03-14T07:22:44.490Z,11.70
2018-03-14T07:25:10.865Z,6.70
2018-03-14T07:27:37.294Z,4.17
2018-03-14T07:30:03.498Z,4.37
2018-03-14T07:32:29.950Z,4.40
2018-03-14T07:34:56.165Z,3.53
2018-03-14T07:37:22.622Z,3.20
2018-03-14T07:39:49.051Z,4.73
2018-03-14T07:42:15.652Z,3.23
2018-03-14T07:44:42.014Z,7.37
2018-03-14T07:47:08.226Z,3.63
2018-03-14T07:49:34.551Z,3.07
2018-03-14T07:52:00.877Z,3.97
2018-03-14T07:54:27.050Z,3.87
2018-03-14T07:56:53.195Z,3.30
2018-03-14T07:59:19.397Z,5.70
2018-03-14T08:01:45.571Z,7.03
2018-03-14T08:04:12.106Z,5.23
2018-03-14T08:06:38.259Z,8.30
2018-03-14T08:09:04.972Z,7.03
2018-03-14T08:11:31.238Z,7.80
2018-03-14T08:13:57.503Z,7.07
2018-03-14T08:16:23.656Z,10.33
2018-03-14T08:18:49.899Z,6.47
2018-03-14T08:21:16.028Z,4.70
2018-03-14T08:23:42.151Z,7.83
2018-03-14T08:26:08.311Z,6.10
2018-03-14T08:28:34.477Z,5.43
2018-03-14T08:31:00.638Z,5.83
2018-03-14T08:33:27.126Z,4.97
2018-03-14T08:35:53.367Z,4.23
2018-03-14T08:38:19.862Z,6.17
2018-03-14T08:40:46.296Z,3.47
2018-03-14T08:43:13.292Z,5.23
2018-03-14T08:45:40.105Z,7.10
2018-03-14T08:48:06.327Z,4.20
2018-03-14T08:50:33.188Z,3.70
2018-03-14T08:52:59.400Z,3.43
2018-03-14T08:55:25.618Z,7.33
2018-03-14T08:57:52.048Z,4.90
2018-03-14T09:00:18.269Z,5.23
2018-03-14T09:02:45.112Z,4.30
2018-03-14T09:05:11.342Z,5.67
2018-03-14T09:07:38.815Z,4.97
2018-03-14T09:10:05.341Z,3.47
2018-03-14T09:12:32.083Z,3.00
2018-03-14T09:14:58.516Z,3.43
2018-03-14T09:17:25.149Z,3.60
2018-03-14T09:19:51.586Z,3.60
2018-03-14T09:22:18.013Z,3.47
2018-03-14T09:24:45.628Z,3.70
2018-03-14T09:27:12.109Z,4.37
2018-03-14T09:29:38.926Z,4.23
2018-03-14T09:32:05.131Z,6.33
2018-03-14T09:34:32.024Z,4.00
2018-03-14T09:36:58.613Z,4.10
2018-03-14T09:39:24.826Z,7.00
2018-03-14T09:41:51.326Z,4.43
2018-03-14T09:44:18.157Z,3.97
2018-03-14T09:46:44.410Z,5.27
2018-03-14T09:49:10.794Z,3.63
2018-03-14T09:51:37.362Z,3.63
2018-03-14T09:54:03.662Z,3.93
2018-03-14T09:56:29.850Z,3.77
2018-03-14T09:58:57.423Z,4.03
2018-03-14T10:01:23.634Z,3.67
2018-03-14T10:03:49.936Z,3.80
2018-03-14T10:06:16.372Z,3.70
2018-03-14T10:08:43.216Z,4.03
2018-03-14T10:11:09.433Z,4.17
2018-03-14T10:13:35.631Z,3.47
2018-03-14T10:16:01.993Z,3.33
2018-03-14T10:18:29.581Z,3.73
2018-03-14T10:20:56.174Z,2.87
2018-03-14T10:23:22.632Z,3.87
2018-03-14T10:25:50.291Z,3.83
2018-03-14T10:28:16.366Z,5.90
2018-03-14T10:30:42.584Z,3.40
2018-03-14T10:33:09.969Z,3.40
2018-03-14T10:35:36.192Z,3.00
2018-03-14T10:38:02.450Z,3.23
2018-03-14T10:40:28.919Z,5.07
2018-03-14T10:42:55.714Z,3.60
2018-03-14T10:45:22.475Z,3.67
2018-03-14T10:47:48.798Z,3.63
2018-03-14T10:50:15.245Z,3.50
2018-03-14T10:52:41.468Z,4.27
2018-03-14T10:55:07.682Z,5.70
2018-03-14T10:57:35.107Z,3.10
2018-03-14T11:00:01.589Z,3.50
2018-03-14T11:02:31.578Z,3.23
2018-03-14T11:04:58.187Z,2.97
2018-03-14T11:07:24.395Z,4.47
2018-03-14T11:09:50.805Z,4.80
2018-03-14T11:12:17.542Z,2.87
2018-03-14T11:14:44.863Z,3.83
2018-03-14T11:17:11.079Z,3.27
2018-03-14T11:19:37.659Z,3.67
2018-03-14T11:22:03.943Z,3.80
2018-03-14T11:24:31.575Z,6.43
2018-03-14T11:26:58.325Z,4.27
2018-03-14T11:29:24.505Z,7.93
2018-03-14T11:31:50.675Z,4.47
2018-03-14T11:34:16.880Z,4.57
2018-03-14T11:36:43.309Z,5.50
2018-03-14T11:39:09.843Z,2.90
2018-03-14T11:41:37.416Z,3.47
2018-03-14T11:44:03.669Z,3.50
2018-03-14T11:46:29.882Z,2.97
2018-03-14T11:48:56.635Z,3.20
2018-03-14T11:51:23.133Z,3.50
2018-03-14T11:53:49.361Z,3.93
2018-03-14T11:56:15.579Z,3.00
2018-03-14T11:58:43.227Z,3.53
2018-03-14T12:01:09.412Z,4.17
2018-03-14T12:03:35.635Z,3.70
2018-03-14T12:06:01.998Z,2.70
2018-03-14T12:08:28.208Z,5.60
2018-03-14T12:10:54.703Z,10.37
2018-03-14T12:13:20.910Z,4.03
2018-03-14T12:15:47.116Z,2.53
2018-03-14T12:18:13.325Z,2.60
2018-03-14T12:20:39.537Z,2.57
2018-03-14T12:23:05.948Z,2.80
2018-03-14T12:25:32.149Z,3.23
2018-03-14T12:27:58.393Z,3.83
2018-03-14T12:30:24.835Z,3.20
2018-03-14T12:32:51.068Z,2.23
2018-03-14T12:35:17.293Z,2.80
2018-03-14T12:37:43.502Z,1.80
2018-03-14T12:40:10.495Z,2.10
2018-03-14T12:42:36.902Z,2.63
2018-03-14T12:45:03.167Z,2.20
2018-03-14T12:47:30.715Z,3.07
2018-03-14T12:49:56.920Z,2.40
2018-03-14T12:52:23.213Z,2.00
2018-03-14T12:54:49.834Z,3.47
2018-03-14T12:57:16.373Z,2.60
2018-03-14T12:59:42.797Z,2.50
2018-03-14T13:02:09.183Z,2.40
2018-03-14T13:04:35.720Z,3.97
2018-03-14T13:07:01.941Z,2.80
2018-03-14T13:09:28.554Z,2.00
2018-03-14T13:11:54.767Z,2.17
2018-03-14T13:14:21.145Z,3.23
2018-03-14T13:16:47.682Z,1.97
2018-03-14T13:19:14.515Z,2.43
2018-03-14T13:21:40.951Z,1.93
2018-03-14T13:24:07.397Z,3.53
2018-03-14T13:26:33.826Z,3.33
2018-03-14T13:29:00.256Z,2.40
2018-03-14T13:31:27.032Z,2.10
2018-03-14T13:33:53.266Z,1.67
2018-03-14T13:36:19.787Z,2.97
2018-03-14T13:38:46.501Z,3.47
2018-03-14T13:41:12.709Z,2.30
2018-03-14T13:43:39.163Z,4.13
2018-03-14T13:46:05.771Z,2.37
2018-03-14T13:48:32.000Z,2.47
2018-03-14T13:50:58.289Z,5.00
2018-03-14T13:53:25.267Z,4.70
2018-03-14T13:55:51.500Z,2.63
2018-03-14T13:58:17.743Z,3.17
2018-03-14T14:00:44.750Z,3.90
2018-03-14T14:03:11.012Z,3.73
2018-03-14T14:05:37.246Z,2.57
2018-03-14T14:08:03.590Z,4.23
2018-03-14T14:10:30.032Z,3.90
2018-03-14T14:12:56.463Z,3.90
2018-03-14T14:15:22.901Z,4.80
2018-03-14T14:17:49.478Z,3.73
2018-03-14T14:20:16.376Z,4.63
2018-03-14T14:22:42.600Z,5.60
2018-03-14T14:25:09.039Z,7.00
2018-03-14T14:27:35.331Z,6.63
2018-03-14T14:30:01.532Z,6.60
2018-03-14T14:32:27.726Z,6.27
2018-03-14T14:34:53.932Z,5.53
2018-03-14T14:37:20.143Z,5.33
2018-03-14T14:39:46.369Z,8.17
2018-03-14T14:42:12.598Z,6.13
2018-03-14T14:44:39.039Z,4.33
2018-03-14T14:47:05.893Z,5.30
2018-03-14T14:49:32.950Z,6.37
2018-03-14T14:51:59.391Z,3.90
2018-03-14T14:54:26.027Z,4.33
2018-03-14T14:56:52.240Z,3.57
2018-03-14T14:59:18.695Z,3.00
2018-03-14T15:01:44.909Z,3.03
2018-03-14T15:04:11.130Z,4.63
2018-03-14T15:06:37.435Z,2.47
2018-03-14T15:09:04.016Z,2.77
2018-03-14T15:11:30.553Z,2.93
2018-03-14T15:13:56.765Z,4.60
2018-03-14T15:16:40.262Z,4.17
2018-03-14T15:19:07.020Z,4.27
2018-03-14T15:21:33.349Z,4.87
2018-03-14T15:23:59.721Z,3.33
2018-03-14T15:26:26.148Z,4.37
2018-03-14T15:28:53.584Z,3.50
2018-03-14T15:31:19.808Z,3.40
2018-03-14T15:33:46.037Z,3.80
2018-03-14T15:36:13.259Z,6.63
2018-03-14T15:38:40.157Z,3.93
2018-03-14T15:41:06.366Z,3.43
2018-03-14T15:43:32.820Z,5.87
2018-03-14T15:45:59.625Z,3.67
2018-03-14T15:48:26.094Z,3.40
2018-03-14T15:50:52.920Z,5.37
2018-03-14T15:53:19.372Z,8.47
2018-03-14T15:55:45.806Z,4.00
2018-03-14T15:58:12.320Z,3.13
2018-03-14T16:00:38.583Z,5.00
2018-03-14T16:03:05.106Z,5.13
2018-03-14T16:05:31.318Z,4.67
2018-03-14T16:07:57.771Z,4.37
2018-03-14T16:10:24.620Z,5.17
2018-03-14T16:12:51.246Z,5.57
2018-03-14T16:15:17.474Z,4.90
2018-03-14T16:17:44.176Z,6.43
2018-03-14T16:20:10.649Z,5.53
2018-03-14T16:22:37.082Z,7.60
2018-03-14T16:25:03.379Z,5.27
2018-03-14T16:27:30.404Z,5.50
2018-03-14T16:29:56.790Z,5.40
2018-03-14T16:32:23.223Z,4.97
2018-03-14T16:34:50.736Z,5.17
2018-03-14T16:37:17.220Z,7.47
2018-03-14T16:39:43.649Z,5.97
2018-03-14T16:42:09.873Z,9.97
2018-03-14T16:44:36.313Z,7.73
2018-03-14T16:47:02.537Z,32.20
2018-03-14T16:49:29.251Z,30.40
2018-03-14T16:51:55.819Z,32.07
2018-03-14T16:54:22.253Z,29.50
2018-03-14T16:56:48.574Z,24.40
2018-03-14T16:59:15.484Z,17.73
2018-03-14T17:01:41.964Z,19.37
2018-03-14T17:04:08.541Z,15.50
2018-03-14T17:06:34.850Z,23.87
2018-03-14T17:09:02.387Z,15.87
2018-03-14T17:11:28.817Z,17.30
2018-03-14T17:13:55.117Z,22.87
2018-03-14T17:16:21.366Z,29.40
2018-03-14T17:18:47.679Z,20.00
2018-03-14T17:21:13.877Z,20.10
2018-03-14T17:23:40.263Z,23.60
2018-03-14T17:26:07.147Z,18.63
2018-03-14T17:28:33.996Z,18.10
2018-03-14T17:31:00.353Z,22.93
2018-03-14T17:33:27.243Z,16.03
2018-03-14T17:35:54.887Z,16.53
2018-03-14T17:38:21.737Z,19.13
2018-03-14T17:40:48.163Z,20.17
2018-03-14T17:43:14.395Z,17.30
2018-03-14T17:45:41.304Z,19.37
2018-03-14T17:48:07.770Z,22.00
2018-03-14T17:50:33.979Z,19.97
2018-03-14T17:53:01.344Z,23.33
2018-03-14T17:55:27.890Z,26.40
2018-03-14T17:57:54.101Z,28.83
2018-03-14T18:00:20.383Z,22.07
2018-03-14T18:02:46.607Z,20.80
2018-03-14T18:05:13.006Z,24.87
2018-03-14T18:07:39.443Z,25.13
2018-03-14T18:10:06.916Z,27.40
2018-03-14T18:12:33.413Z,23.77
2018-03-14T18:14:59.649Z,25.93
2018-03-14T18:17:26.196Z,24.93
2018-03-14T18:19:53.675Z,22.57
2018-03-14T18:22:19.893Z,20.73
2018-03-14T18:24:46.776Z,15.40
2018-03-14T18:27:13.647Z,10.70
2018-03-14T18:29:40.105Z,12.40
2018-03-14T18:32:06.539Z,9.23
2018-03-14T18:34:33.338Z,9.33
2018-03-14T18:36:59.568Z,9.17
2018-03-14T18:39:25.808Z,5.70
2018-03-14T18:41:52.042Z,5.83
2018-03-14T18:44:18.464Z,7.50
2018-03-14T18:46:45.644Z,7.10
2018-03-14T18:49:12.086Z,6.90
2018-03-14T18:51:38.289Z,7.10
2018-03-14T18:54:05.876Z,9.17
2018-03-14T18:56:32.829Z,9.50
2018-03-14T18:58:59.655Z,11.33
2018-03-14T19:01:26.183Z,18.10
2018-03-14T19:03:53.232Z,18.77
2018-03-14T19:06:20.382Z,18.90
2018-03-14T19:08:48.460Z,20.53
2018-03-14T19:11:15.081Z,19.27
2018-03-14T19:13:41.625Z,17.40
2018-03-14T19:16:08.171Z,20.13
2018-03-14T19:18:34.704Z,18.83
2018-03-14T19:21:02.176Z,17.37
2018-03-14T19:23:28.434Z,18.80
2018-03-14T19:25:54.928Z,14.80
2018-03-14T19:28:21.874Z,16.20
2018-03-14T19:30:48.105Z,13.20
2018-03-14T19:33:14.942Z,17.00
2018-03-14T19:35:41.771Z,11.67
2018-03-14T19:38:08.644Z,15.43
2018-03-14T19:40:34.849Z,15.67
2018-03-14T19:43:01.288Z,15.70
2018-03-14T19:45:27.623Z,15.83
2018-03-14T19:47:54.011Z,16.93
2018-03-14T19:50:20.727Z,14.30
2018-03-14T19:52:47.604Z,15.80
2018-03-14T19:55:14.077Z,16.63
2018-03-14T19:57:40.874Z,15.40
2018-03-14T20:00:07.346Z,19.40
2018-03-14T20:02:33.545Z,14.97
2018-03-14T20:05:00.110Z,15.83
2018-03-14T20:07:26.330Z,17.13
2018-03-14T20:09:52.845Z,16.20
2018-03-14T20:12:19.514Z,15.00
2018-03-14T20:14:45.946Z,14.13
2018-03-14T20:17:12.200Z,12.20
2018-03-14T20:19:39.084Z,13.30
2018-03-14T20:22:05.351Z,14.87
2018-03-14T20:24:31.779Z,15.80
2018-03-14T20:26:58.675Z,14.07
2018-03-14T20:29:25.165Z,12.53
2018-03-14T20:31:51.795Z,12.50
2018-03-14T20:34:17.998Z,13.27
2018-03-14T20:36:45.491Z,12.60
2018-03-14T20:39:11.706Z,10.33
2018-03-14T20:41:38.146Z,14.50
2018-03-14T20:44:04.979Z,13.17
2018-03-14T20:46:31.188Z,13.23
2018-03-14T20:48:58.337Z,14.67
2018-03-14T20:51:24.604Z,15.27
2018-03-14T20:53:52.127Z,15.57
2018-03-14T20:56:18.357Z,19.57
2018-03-14T20:58:44.919Z,14.53
2018-03-14T21:01:11.352Z,15.50
2018-03-14T21:03:37.576Z,14.03
2018-03-14T21:06:04.046Z,13.23
2018-03-14T21:08:30.315Z,16.83
2018-03-14T21:10:57.689Z,13.30
2018-03-14T21:13:23.950Z,15.03
2018-03-14T21:15:51.499Z,13.23
2018-03-14T21:18:17.707Z,17.13
2018-03-14T21:20:44.604Z,11.80
2018-03-14T21:23:11.150Z,14.23
2018-03-14T21:25:37.371Z,25.20
2018-03-14T21:28:03.856Z,19.93
2018-03-14T21:30:30.389Z,12.77
2018-03-14T21:32:56.591Z,12.60
2018-03-14T21:35:22.919Z,13.33
2018-03-14T21:37:49.105Z,12.63
2018-03-14T21:40:15.500Z,9.87
2018-03-14T21:42:41.724Z,5.60
2018-03-14T21:45:08.172Z,4.93
2018-03-14T21:47:34.604Z,4.40
2018-03-14T21:50:01.434Z,4.17
2018-03-14T21:52:27.651Z,5.23
2018-03-14T21:54:54.380Z,3.43
2018-03-14T21:57:20.919Z,3.70
2018-03-14T21:59:47.383Z,3.80
2018-03-14T22:02:13.817Z,3.33
2018-03-14T22:04:40.829Z,3.50
2018-03-14T22:07:07.037Z,3.90
2018-03-14T22:09:33.523Z,3.43
2018-03-14T22:11:59.741Z,6.07
2018-03-14T22:14:26.286Z,9.93
2018-03-14T22:16:52.458Z,4.03
2018-03-14T22:19:19.448Z,3.30
2018-03-14T22:22:01.121Z,4.73
2018-03-14T22:24:27.586Z,3.73
2018-03-14T22:26:55.078Z,3.80
2018-03-14T22:29:21.477Z,3.60
2018-03-14T22:31:48.215Z,4.53
2018-03-14T22:34:15.083Z,4.13
2018-03-14T22:36:41.872Z,4.47
2018-03-14T22:39:08.098Z,4.70
2018-03-14T22:41:34.366Z,3.83
2018-03-14T22:44:00.792Z,5.50
2018-03-14T22:46:27.116Z,5.10
2018-03-14T22:48:54.189Z,4.53
2018-03-14T22:51:20.416Z,4.80
2018-03-14T22:53:52.332Z,4.30
2018-03-14T22:56:18.556Z,4.43
2018-03-14T22:58:45.127Z,4.57
2018-03-14T23:01:12.006Z,4.60
2018-03-14T23:03:38.401Z,5.73
2018-03-14T23:06:04.622Z,4.87
2018-03-14T23:08:30.976Z,5.00
2018-03-14T23:10:58.517Z,5.20
2018-03-14T23:13:24.740Z,5.97
2018-03-14T23:15:51.182Z,5.57
2018-03-14T23:18:18.099Z,6.10
2018-03-14T23:20:44.561Z,5.50
2018-03-14T23:23:10.994Z,4.87
2018-03-14T23:25:37.427Z,6.07
2018-03-14T23:28:04.256Z,6.70
2018-03-14T23:30:30.453Z,5.13
2018-03-14T23:32:56.689Z,6.30
2018-03-14T23:35:23.264Z,4.93
2018-03-14T23:37:49.480Z,4.73
2018-03-14T23:40:15.689Z,4.67
2018-03-14T23:42:42.151Z,5.30
2018-03-14T23:45:08.358Z,5.57
2018-03-14T23:47:34.814Z,4.97
2018-03-14T23:50:01.027Z,6.97
2018-03-14T23:52:27.975Z,5.93
2018-03-14T23:54:54.521Z,5.50
2018-03-14T23:57:21.306Z,5.50
2018-03-14T23:59:48.289Z,5.97
